createdAt,value
2023-03-20T00:00:56.119Z,-1
2023-03-20T00:02:02.395Z,-3
2023-03-20T00:03:08.666Z,-2
2023-03-20T00:04:14.932Z,0
2023-03-20T00:05:21.212Z,-1
2023-03-20T00:06:27.484Z,-2
2023-03-20T00:07:33.762Z,-3
2023-03-20T00:08:40.028Z,0
2023-03-20T00:09:46.300Z,-2
2023-03-20T00:10:52.569Z,-3
2023-03-20T00:11:57.860Z,-3
2023-03-20T00:13:04.132Z,-3
2023-03-20T00:14:10.414Z,-2
2023-03-20T00:15:16.683Z,-2
2023-03-20T00:16:22.952Z,-2
2023-03-20T00:17:29.222Z,-3
2023-03-20T00:18:35.500Z,-1
2023-03-20T00:19:40.797Z,-2
2023-03-20T00:20:46.159Z,-2
2023-03-20T00:21:52.397Z,-2
2023-03-20T00:22:57.666Z,-3
2023-03-20T00:24:02.938Z,-1
2023-03-20T00:25:09.208Z,-3
2023-03-20T00:26:15.472Z,-3
2023-03-20T00:27:21.848Z,-2
2023-03-20T00:28:28.019Z,-1
2023-03-20T00:29:34.330Z,-3
2023-03-20T00:30:40.561Z,-2
2023-03-20T00:31:46.843Z,-2
2023-03-20T00:32:53.123Z,-1
2023-03-20T00:33:59.382Z,-1
2023-03-20T00:35:05.670Z,-3
2023-03-20T00:36:11.924Z,-2
2023-03-20T00:37:18.191Z,-2
2023-03-20T00:38:23.488Z,-2
2023-03-20T00:39:29.763Z,-3
2023-03-20T00:40:36.028Z,-3
2023-03-20T00:41:42.294Z,-3
2023-03-20T00:42:48.574Z,-2
2023-03-20T00:43:54.846Z,-2
2023-03-20T00:45:01.144Z,-2
2023-03-20T00:46:06.478Z,-2
2023-03-20T00:47:11.717Z,-2
2023-03-20T00:48:17.013Z,-3
2023-03-20T00:49:22.292Z,-2
2023-03-20T00:50:28.567Z,-1
2023-03-20T00:51:34.834Z,-2
2023-03-20T00:52:41.106Z,-3
2023-03-20T00:53:47.376Z,-3
2023-03-20T00:54:53.664Z,-3
2023-03-20T00:55:59.926Z,-3
2023-03-20T00:57:06.199Z,-1
2023-03-20T00:58:12.475Z,-3
2023-03-20T00:59:18.746Z,-2
2023-03-20T01:00:25.010Z,-3
2023-03-20T01:01:31.283Z,-3
2023-03-20T01:02:37.570Z,-3
2023-03-20T01:03:42.849Z,-3
2023-03-20T01:04:49.106Z,-3
2023-03-20T01:05:55.381Z,-3
2023-03-20T01:07:01.666Z,-5
2023-03-20T01:08:07.928Z,-5
2023-03-20T01:09:14.196Z,-4
2023-03-20T01:10:20.474Z,-4
2023-03-20T01:11:25.774Z,-4
2023-03-20T01:12:31.060Z,-3
2023-03-20T01:13:36.370Z,-3
2023-03-20T01:14:41.651Z,-2
2023-03-20T01:15:47.922Z,-3
2023-03-20T01:16:54.186Z,-3
2023-03-20T01:18:00.486Z,-2
2023-03-20T01:19:06.737Z,-4
2023-03-20T01:20:13.006Z,-3
2023-03-20T01:21:19.279Z,-4
2023-03-20T01:22:25.559Z,-6
2023-03-20T01:23:31.821Z,-3
2023-03-20T01:24:38.090Z,-4
2023-03-20T01:25:44.368Z,-4
2023-03-20T01:26:50.636Z,-3
2023-03-20T01:27:56.903Z,-3
2023-03-20T01:29:02.188Z,-5
2023-03-20T01:30:08.470Z,-3
2023-03-20T01:31:14.744Z,-4
2023-03-20T01:32:21.011Z,-3
2023-03-20T01:33:27.289Z,-4
2023-03-20T01:34:33.565Z,-3
2023-03-20T01:35:39.828Z,-4
2023-03-20T01:36:45.141Z,-4
2023-03-20T01:37:50.433Z,-3
2023-03-20T01:38:55.717Z,-4
2023-03-20T01:40:01.001Z,-6
2023-03-20T01:41:07.277Z,-5
2023-03-20T01:42:13.549Z,-2
2023-03-20T01:43:19.815Z,-4
2023-03-20T01:44:26.095Z,-3
2023-03-20T01:45:32.357Z,-3
2023-03-20T01:46:38.636Z,-5
2023-03-20T01:47:44.910Z,-6
2023-03-20T01:48:51.181Z,-4
2023-03-20T01:49:57.454Z,-3
2023-03-20T01:51:03.729Z,-4
2023-03-20T01:52:09.993Z,-5
2023-03-20T01:53:16.265Z,-4
2023-03-20T01:54:21.568Z,-4
2023-03-20T01:55:27.822Z,-4
2023-03-20T01:56:34.112Z,-6
2023-03-20T01:57:40.378Z,-5
2023-03-20T01:58:46.631Z,-4
2023-03-20T01:59:52.909Z,-4
2023-03-20T02:00:59.191Z,-5
2023-03-20T02:02:04.547Z,-4
2023-03-20T02:03:09.790Z,-5
2023-03-20T02:04:15.068Z,-4
2023-03-20T02:05:20.428Z,-4
2023-03-20T02:06:26.628Z,-3
2023-03-20T02:07:32.913Z,-5
2023-03-20T02:08:39.179Z,-4
2023-03-20T02:09:45.446Z,-6
2023-03-20T02:10:51.723Z,-6
2023-03-20T02:11:58.000Z,-5
2023-03-20T02:13:04.266Z,-5
2023-03-20T02:14:10.549Z,-4
2023-03-20T02:15:16.810Z,-4
2023-03-20T02:16:23.093Z,-4
2023-03-20T02:17:29.350Z,-5
2023-03-20T02:18:35.618Z,-5
2023-03-20T02:19:40.914Z,-5
2023-03-20T02:20:47.192Z,-4
2023-03-20T02:21:53.518Z,-5
2023-03-20T02:22:59.726Z,-4
2023-03-20T02:24:06.013Z,-4
2023-03-20T02:25:12.268Z,-3
2023-03-20T02:26:18.545Z,-4
2023-03-20T02:27:23.840Z,-4
2023-03-20T02:28:29.119Z,-5
2023-03-20T02:29:34.432Z,-6
2023-03-20T02:30:39.715Z,-4
2023-03-20T02:31:45.987Z,-5
2023-03-20T02:32:52.257Z,-6
2023-03-20T02:33:58.532Z,-4
2023-03-20T02:35:04.816Z,-4
2023-03-20T02:36:11.075Z,-6
2023-03-20T02:37:17.349Z,-4
2023-03-20T02:38:23.626Z,-5
2023-03-20T02:39:29.884Z,-4
2023-03-20T02:40:36.161Z,-5
2023-03-20T02:41:42.433Z,-6
2023-03-20T02:42:48.731Z,-5
2023-03-20T02:43:54.972Z,-5
2023-03-20T02:45:00.262Z,-5
2023-03-20T02:46:06.536Z,-4
2023-03-20T02:47:12.818Z,-5
2023-03-20T02:48:19.084Z,-5
2023-03-20T02:49:25.386Z,-4
2023-03-20T02:50:31.624Z,-6
2023-03-20T02:51:37.892Z,-6
2023-03-20T02:52:43.195Z,-6
2023-03-20T02:53:49.467Z,-5
2023-03-20T02:54:54.754Z,-5
2023-03-20T02:56:00.079Z,-6
2023-03-20T02:57:05.345Z,-4
2023-03-20T02:58:11.618Z,-6
2023-03-20T02:59:17.884Z,-6
2023-03-20T03:00:24.155Z,-6
2023-03-20T03:01:30.427Z,-7
2023-03-20T03:02:36.707Z,-6
2023-03-20T03:03:42.974Z,-6
2023-03-20T03:04:49.245Z,-5
2023-03-20T03:05:55.513Z,-5
2023-03-20T03:07:01.787Z,-6
2023-03-20T03:08:08.097Z,-6
2023-03-20T03:09:14.328Z,-6
2023-03-20T03:10:20.608Z,-5
2023-03-20T03:11:25.890Z,-7
2023-03-20T03:12:32.161Z,-6
2023-03-20T03:13:38.455Z,-6
2023-03-20T03:14:44.705Z,-5
2023-03-20T03:15:50.977Z,-6
2023-03-20T03:16:57.262Z,-6
2023-03-20T03:18:03.528Z,-6
2023-03-20T03:19:08.819Z,-6
2023-03-20T03:20:14.119Z,-7
2023-03-20T03:21:19.414Z,-7
2023-03-20T03:22:24.704Z,-6
2023-03-20T03:23:30.971Z,-6
2023-03-20T03:24:37.241Z,-6
2023-03-20T03:25:43.513Z,-6
2023-03-20T03:26:49.793Z,-6
2023-03-20T03:27:56.061Z,-6
2023-03-20T03:29:02.395Z,-4
2023-03-20T03:30:08.603Z,-6
2023-03-20T03:31:14.872Z,-7
2023-03-20T03:32:21.150Z,-7
2023-03-20T03:33:27.431Z,-6
2023-03-20T03:34:33.686Z,-6
2023-03-20T03:35:39.958Z,-6
2023-03-20T03:36:45.244Z,-9
2023-03-20T03:37:51.516Z,-6
2023-03-20T03:38:57.788Z,-6
2023-03-20T03:40:04.059Z,-6
2023-03-20T03:41:10.334Z,-6
2023-03-20T03:42:16.597Z,-5
2023-03-20T03:43:22.901Z,-6
2023-03-20T03:44:28.180Z,-6
2023-03-20T03:45:33.465Z,-6
2023-03-20T03:46:38.764Z,-6
2023-03-20T03:47:44.057Z,-5
2023-03-20T03:48:50.329Z,-6
2023-03-20T03:49:56.592Z,-6
2023-03-20T03:51:02.871Z,-5
2023-03-20T03:52:09.157Z,-6
2023-03-20T03:53:15.417Z,-5
2023-03-20T03:54:21.705Z,-4
2023-03-20T03:55:28.047Z,-6
2023-03-20T03:56:34.242Z,-6
2023-03-20T03:57:40.496Z,-6
2023-03-20T03:58:46.785Z,-6
2023-03-20T03:59:53.046Z,-6
2023-03-20T04:00:59.330Z,-6
2023-03-20T04:02:05.591Z,-6
2023-03-20T04:03:10.882Z,-6
2023-03-20T04:04:17.142Z,-6
2023-03-20T04:05:23.416Z,-6
2023-03-20T04:06:29.732Z,-6
2023-03-20T04:07:35.977Z,-6
2023-03-20T04:08:42.246Z,-6
2023-03-20T04:09:47.534Z,-6
2023-03-20T04:10:52.829Z,-6
2023-03-20T04:11:58.124Z,-7
2023-03-20T04:13:03.415Z,-6
2023-03-20T04:14:09.687Z,-6
2023-03-20T04:15:15.961Z,-6
2023-03-20T04:16:22.247Z,-6
2023-03-20T04:17:28.508Z,-4
2023-03-20T04:18:34.768Z,-8
2023-03-20T04:19:41.037Z,-5
2023-03-20T04:20:47.314Z,-6
2023-03-20T04:21:53.595Z,-5
2023-03-20T04:22:59.858Z,-7
2023-03-20T04:24:06.133Z,-6
2023-03-20T04:25:12.408Z,-6
2023-03-20T04:26:18.690Z,-7
2023-03-20T04:27:23.957Z,-5
2023-03-20T04:28:30.232Z,-3
2023-03-20T04:29:36.505Z,-5
2023-03-20T04:30:42.794Z,-6
2023-03-20T04:31:49.057Z,-6
2023-03-20T04:32:55.311Z,-5
2023-03-20T04:34:01.597Z,-6
2023-03-20T04:35:06.975Z,-4
2023-03-20T04:36:13.162Z,-6
2023-03-20T04:37:18.478Z,-5
2023-03-20T04:38:24.726Z,-6
2023-03-20T04:39:30.994Z,-6
2023-03-20T04:40:37.268Z,-6
2023-03-20T04:41:43.545Z,-6
2023-03-20T04:42:49.814Z,-5
2023-03-20T04:43:56.087Z,-3
2023-03-20T04:45:02.360Z,-5
2023-03-20T04:46:08.638Z,-8
2023-03-20T04:47:14.906Z,-6
2023-03-20T04:48:21.182Z,-6
2023-03-20T04:49:27.464Z,-5
2023-03-20T04:50:33.721Z,-6
2023-03-20T04:51:39.013Z,-6
2023-03-20T04:52:45.274Z,-6
2023-03-20T04:53:51.562Z,-6
2023-03-20T04:54:57.813Z,-5
2023-03-20T04:56:04.096Z,-6
2023-03-20T04:57:10.366Z,-6
2023-03-20T04:58:15.673Z,-6
2023-03-20T04:59:20.954Z,-6
2023-03-20T05:00:26.260Z,-6
2023-03-20T05:01:31.565Z,-7
2023-03-20T05:02:37.850Z,-6
2023-03-20T05:03:44.086Z,-6
2023-03-20T05:04:50.355Z,-6
2023-03-20T05:05:56.634Z,-6
2023-03-20T05:07:02.926Z,-6
2023-03-20T05:08:09.177Z,-6
2023-03-20T05:09:15.433Z,-5
2023-03-20T05:10:21.712Z,-6
2023-03-20T05:11:27.984Z,-4
2023-03-20T05:12:34.260Z,-6
2023-03-20T05:13:40.537Z,-5
2023-03-20T05:14:46.807Z,-6
2023-03-20T05:15:52.096Z,-7
2023-03-20T05:16:58.360Z,-6
2023-03-20T05:18:04.631Z,-6
2023-03-20T05:19:10.908Z,-6
2023-03-20T05:20:17.167Z,-7
2023-03-20T05:21:22.472Z,-6
2023-03-20T05:22:28.745Z,-6
2023-03-20T05:23:34.037Z,-5
2023-03-20T05:24:39.330Z,-7
2023-03-20T05:25:44.622Z,-6
2023-03-20T05:26:49.915Z,-6
2023-03-20T05:27:56.465Z,-7
2023-03-20T05:29:02.530Z,-7
2023-03-20T05:30:08.730Z,-6
2023-03-20T05:31:15.006Z,-6
2023-03-20T05:32:21.282Z,-6
2023-03-20T05:33:27.547Z,-6
2023-03-20T05:34:33.837Z,-6
2023-03-20T05:35:40.112Z,-6
2023-03-20T05:36:46.352Z,-6
2023-03-20T05:37:52.640Z,-6
2023-03-20T05:38:58.934Z,-6
2023-03-20T05:40:05.216Z,-5
2023-03-20T05:41:10.471Z,-6
2023-03-20T05:42:16.734Z,-7
2023-03-20T05:43:23.014Z,-7
2023-03-20T05:44:29.288Z,-6
2023-03-20T05:45:35.560Z,-6
2023-03-20T05:46:41.824Z,-6
2023-03-20T05:47:48.096Z,-6
2023-03-20T05:48:53.414Z,-7
2023-03-20T05:49:58.696Z,-6
2023-03-20T05:51:04.981Z,-4
2023-03-20T05:52:11.250Z,-7
2023-03-20T05:53:16.532Z,-7
2023-03-20T05:54:21.829Z,-5
2023-03-20T05:55:28.081Z,-6
2023-03-20T05:56:34.384Z,-7
2023-03-20T05:57:40.625Z,-7
2023-03-20T05:58:46.905Z,-6
2023-03-20T05:59:53.183Z,-6
2023-03-20T06:00:59.459Z,-6
2023-03-20T06:02:05.721Z,-6
2023-03-20T06:03:11.987Z,-6
2023-03-20T06:04:18.275Z,-5
2023-03-20T06:05:24.528Z,-5
2023-03-20T06:06:30.809Z,-5
2023-03-20T06:07:37.079Z,-5
2023-03-20T06:08:42.362Z,-5
2023-03-20T06:09:48.648Z,-9
2023-03-20T06:10:54.914Z,-6
2023-03-20T06:12:01.199Z,-6
2023-03-20T06:13:07.461Z,-6
2023-03-20T06:14:13.740Z,-6
2023-03-20T06:15:20.011Z,-6
2023-03-20T06:16:25.299Z,-7
2023-03-20T06:17:30.600Z,-5
2023-03-20T06:18:36.856Z,-7
2023-03-20T06:19:43.202Z,-7
2023-03-20T06:20:49.405Z,-5
2023-03-20T06:21:55.678Z,-6
2023-03-20T06:23:01.981Z,-6
2023-03-20T06:24:08.231Z,-1
2023-03-20T06:25:14.484Z,-5
2023-03-20T06:26:20.761Z,-7
2023-03-20T06:27:27.063Z,-6
2023-03-20T06:28:33.295Z,-6
2023-03-20T06:29:39.609Z,-7
2023-03-20T06:30:45.847Z,-6
2023-03-20T06:31:51.130Z,-6
2023-03-20T06:32:57.409Z,-6
2023-03-20T06:34:03.672Z,-5
2023-03-20T06:35:09.961Z,-6
2023-03-20T06:36:16.217Z,-6
2023-03-20T06:37:22.499Z,-5
2023-03-20T06:38:28.777Z,-8
2023-03-20T06:39:34.063Z,-4
2023-03-20T06:40:39.353Z,-5
2023-03-20T06:41:44.718Z,-5
2023-03-20T06:42:49.940Z,-5
2023-03-20T06:43:56.205Z,-6
2023-03-20T06:45:01.555Z,-5
2023-03-20T06:46:06.801Z,-5
2023-03-20T06:47:13.071Z,-6
2023-03-20T06:48:19.340Z,-6
2023-03-20T06:49:25.622Z,-5
2023-03-20T06:50:31.894Z,-6
2023-03-20T06:51:38.160Z,-5
2023-03-20T06:52:44.432Z,-6
2023-03-20T06:53:50.718Z,-3
2023-03-20T06:54:57.038Z,-4
2023-03-20T06:56:03.249Z,-6
2023-03-20T06:57:09.516Z,-5
2023-03-20T06:58:15.784Z,-7
2023-03-20T06:59:22.065Z,-5
2023-03-20T07:00:27.349Z,-6
2023-03-20T07:01:33.653Z,-5
2023-03-20T07:02:39.890Z,-5
2023-03-20T07:03:46.161Z,-5
2023-03-20T07:04:52.437Z,-5
2023-03-20T07:05:58.713Z,-6
2023-03-20T07:07:04.989Z,-5
2023-03-20T07:08:10.286Z,-6
2023-03-20T07:09:15.579Z,-5
2023-03-20T07:10:20.873Z,-6
2023-03-20T07:11:26.170Z,-5
2023-03-20T07:12:32.433Z,-6
2023-03-20T07:13:38.786Z,-6
2023-03-20T07:14:44.983Z,-6
2023-03-20T07:15:51.263Z,-5
2023-03-20T07:16:57.542Z,-4
2023-03-20T07:18:03.796Z,-5
2023-03-20T07:19:10.063Z,-5
2023-03-20T07:20:16.337Z,-5
2023-03-20T07:21:22.611Z,-4
2023-03-20T07:22:28.884Z,-4
2023-03-20T07:23:35.165Z,-3
2023-03-20T07:24:41.431Z,-4
2023-03-20T07:25:47.846Z,-4
2023-03-20T07:26:52.992Z,-4
2023-03-20T07:27:59.274Z,-5
2023-03-20T07:29:05.611Z,-3
2023-03-20T07:30:11.811Z,-5
2023-03-20T07:31:18.070Z,-4
2023-03-20T07:32:24.344Z,-5
2023-03-20T07:33:29.659Z,-5
2023-03-20T07:34:34.957Z,-3
2023-03-20T07:35:41.193Z,0
2023-03-20T07:36:47.514Z,-4
2023-03-20T07:37:53.749Z,-5
2023-03-20T07:39:00.019Z,-3
2023-03-20T07:40:05.328Z,-3
2023-03-20T07:41:10.608Z,-3
2023-03-20T07:42:16.904Z,-3
2023-03-20T07:43:23.143Z,-2
2023-03-20T07:44:29.419Z,-3
2023-03-20T07:45:35.682Z,-3
2023-03-20T07:46:41.961Z,-1
2023-03-20T07:47:48.234Z,-3
2023-03-20T07:48:54.512Z,-3
2023-03-20T07:50:00.770Z,-3
2023-03-20T07:51:07.106Z,-2
2023-03-20T07:52:13.326Z,-6
2023-03-20T07:53:19.577Z,-2
2023-03-20T07:54:25.873Z,-4
2023-03-20T07:55:31.176Z,-3
2023-03-20T07:56:37.508Z,-3
2023-03-20T07:57:43.693Z,-3
2023-03-20T07:58:50.006Z,-3
2023-03-20T07:59:56.247Z,-4
2023-03-20T08:01:02.693Z,-3
2023-03-20T08:02:08.816Z,-2
2023-03-20T08:03:14.115Z,-3
2023-03-20T08:04:19.362Z,-3
2023-03-20T08:05:25.774Z,-2
2023-03-20T08:06:30.990Z,-3
2023-03-20T08:07:36.256Z,-2
2023-03-20T08:08:42.494Z,-3
2023-03-20T08:09:48.789Z,-3
2023-03-20T08:10:55.051Z,-3
2023-03-20T08:12:01.340Z,-1
2023-03-20T08:13:07.622Z,-2
2023-03-20T08:14:13.890Z,-1
2023-03-20T08:15:20.147Z,-3
2023-03-20T08:16:26.487Z,-2
2023-03-20T08:17:32.712Z,0
2023-03-20T08:18:38.950Z,-1
2023-03-20T08:19:45.284Z,-2
2023-03-20T08:20:51.548Z,-1
2023-03-20T08:21:56.799Z,-1
2023-03-20T08:23:03.046Z,-2
2023-03-20T08:24:09.347Z,-1
2023-03-20T08:25:15.610Z,-1
2023-03-20T08:26:21.877Z,-1
2023-03-20T08:27:28.206Z,-1
2023-03-20T08:28:34.415Z,-1
2023-03-20T08:29:39.708Z,-2
2023-03-20T08:30:44.994Z,-1
2023-03-20T08:31:51.330Z,0
2023-03-20T08:32:57.563Z,-2
2023-03-20T08:34:03.865Z,0
2023-03-20T08:35:10.084Z,-2
2023-03-20T08:36:16.404Z,0
2023-03-20T08:37:22.680Z,-1
2023-03-20T08:38:28.975Z,0
2023-03-20T08:39:35.208Z,0
2023-03-20T08:40:41.499Z,-2
2023-03-20T08:41:47.741Z,-1
2023-03-20T08:42:53.988Z,-1
2023-03-20T08:44:00.253Z,0
2023-03-20T08:45:05.585Z,0
2023-03-20T08:46:11.955Z,0
2023-03-20T08:47:18.086Z,0
2023-03-20T08:48:24.481Z,0
2023-03-20T08:49:30.633Z,0
2023-03-20T08:50:37.024Z,0
2023-03-20T08:51:43.193Z,0
2023-03-20T08:52:48.470Z,0
2023-03-20T08:53:53.764Z,0
2023-03-20T08:54:59.095Z,1
2023-03-20T08:56:04.429Z,0
2023-03-20T08:57:10.698Z,3
2023-03-20T08:58:16.113Z,1
2023-03-20T08:59:21.224Z,3
2023-03-20T09:00:27.564Z,3
2023-03-20T09:01:33.798Z,1
2023-03-20T09:02:39.265Z,5
2023-03-20T09:03:45.348Z,3
2023-03-20T09:04:51.622Z,2
2023-03-20T09:05:58.005Z,2
2023-03-20T09:07:04.132Z,3
2023-03-20T09:08:10.403Z,2
2023-03-20T09:09:16.670Z,0
2023-03-20T09:10:22.944Z,1
2023-03-20T09:11:29.279Z,-1
2023-03-20T09:12:35.545Z,0
2023-03-20T09:13:41.950Z,0
2023-03-20T09:14:48.195Z,0
2023-03-20T09:15:54.448Z,0
2023-03-20T09:16:59.685Z,0
2023-03-20T09:18:05.998Z,1
2023-03-20T09:19:12.177Z,2
2023-03-20T09:20:18.403Z,0
2023-03-20T09:21:23.753Z,0
2023-03-20T09:22:28.994Z,1
2023-03-20T09:23:35.269Z,0
2023-03-20T09:24:41.541Z,1
2023-03-20T09:25:47.805Z,0
2023-03-20T09:26:54.089Z,1
2023-03-20T09:28:00.421Z,1
2023-03-20T09:29:06.621Z,2
2023-03-20T09:30:12.899Z,1
2023-03-20T09:31:19.171Z,2
2023-03-20T09:32:25.438Z,2
2023-03-20T09:33:31.713Z,2
2023-03-20T09:34:37.988Z,2
2023-03-20T09:35:44.253Z,1
2023-03-20T09:36:49.576Z,3
2023-03-20T09:37:55.816Z,2
2023-03-20T09:39:02.091Z,3
2023-03-20T09:40:08.368Z,3
2023-03-20T09:41:14.633Z,1
2023-03-20T09:42:20.911Z,1
2023-03-20T09:43:27.193Z,2
2023-03-20T09:45:38.747Z,0
2023-03-20T09:46:44.049Z,3
2023-03-20T09:47:49.347Z,3
2023-03-20T09:48:54.638Z,0
2023-03-20T09:49:59.926Z,1
2023-03-20T09:51:05.225Z,3
2023-03-20T09:52:10.509Z,1
2023-03-20T09:53:16.776Z,2
2023-03-20T09:54:23.041Z,1
2023-03-20T09:55:29.315Z,1
2023-03-20T09:56:35.619Z,1
2023-03-20T09:57:41.864Z,1
2023-03-20T09:58:48.160Z,0
2023-03-20T09:59:54.420Z,0
2023-03-20T10:01:00.689Z,2
2023-03-20T10:02:06.961Z,0
2023-03-20T10:03:13.250Z,0
2023-03-20T10:04:19.605Z,1
2023-03-20T10:05:25.770Z,0
2023-03-20T10:06:31.059Z,0
2023-03-20T10:07:37.333Z,0
2023-03-20T10:08:43.784Z,0
2023-03-20T10:09:49.976Z,0
2023-03-20T10:10:56.145Z,0
2023-03-20T10:12:02.558Z,1
2023-03-20T10:13:08.804Z,0
2023-03-20T10:14:14.079Z,0
2023-03-20T10:15:19.283Z,0
2023-03-20T10:16:25.578Z,1
2023-03-20T10:17:31.821Z,0
2023-03-20T10:18:37.122Z,1
2023-03-20T10:19:42.426Z,0
2023-03-20T10:20:48.691Z,0
2023-03-20T10:21:54.980Z,0
2023-03-20T10:23:01.242Z,1
2023-03-20T10:24:07.494Z,0
2023-03-20T10:25:13.777Z,1
2023-03-20T10:26:20.035Z,0
2023-03-20T10:27:26.314Z,0
2023-03-20T10:28:32.580Z,2
2023-03-20T10:29:38.871Z,0
2023-03-20T10:30:45.138Z,1
2023-03-20T10:31:51.423Z,-2
2023-03-20T10:32:57.670Z,0
2023-03-20T10:34:03.023Z,0
2023-03-20T10:35:09.233Z,1
2023-03-20T10:36:15.508Z,1
2023-03-20T10:37:21.782Z,2
2023-03-20T10:38:28.050Z,1
2023-03-20T10:39:34.319Z,0
2023-03-20T10:40:40.632Z,1
2023-03-20T10:41:47.004Z,1
2023-03-20T10:42:53.134Z,1
2023-03-20T10:43:59.507Z,1
2023-03-20T10:45:05.674Z,1
2023-03-20T10:46:12.042Z,2
2023-03-20T10:47:18.242Z,1
2023-03-20T10:48:23.527Z,1
2023-03-20T10:49:29.785Z,1
2023-03-20T10:50:36.087Z,2
2023-03-20T10:51:42.328Z,2
2023-03-20T10:52:48.602Z,2
2023-03-20T10:53:54.895Z,0
2023-03-20T10:55:01.192Z,1
2023-03-20T10:56:07.438Z,1
2023-03-20T10:57:13.695Z,2
2023-03-20T10:58:19.958Z,1
2023-03-20T10:59:26.232Z,2
2023-03-20T11:00:32.495Z,3
2023-03-20T11:01:38.770Z,3
2023-03-20T11:02:44.059Z,1
2023-03-20T11:03:50.326Z,3
2023-03-20T11:04:56.604Z,3
2023-03-20T11:06:02.919Z,2
2023-03-20T11:07:09.155Z,3
2023-03-20T11:08:15.424Z,3
2023-03-20T11:09:21.739Z,1
2023-03-20T11:10:27.957Z,3
2023-03-20T11:11:34.231Z,2
2023-03-20T11:12:40.528Z,1
2023-03-20T11:13:46.837Z,1
2023-03-20T11:14:53.051Z,2
2023-03-20T11:15:59.329Z,2
2023-03-20T11:17:05.596Z,0
2023-03-20T11:18:11.869Z,3
2023-03-20T11:19:17.158Z,0
2023-03-20T11:20:23.418Z,3
2023-03-20T11:21:29.716Z,1
2023-03-20T11:22:35.989Z,3
2023-03-20T11:23:42.271Z,2
2023-03-20T11:24:48.517Z,2
2023-03-20T11:25:54.793Z,2
2023-03-20T11:27:01.057Z,3
2023-03-20T11:28:07.339Z,1
2023-03-20T11:29:13.613Z,2
2023-03-20T11:30:19.875Z,1
2023-03-20T11:31:26.143Z,2
2023-03-20T11:32:32.421Z,3
2023-03-20T11:33:37.703Z,1
2023-03-20T11:34:43.977Z,3
2023-03-20T11:35:50.245Z,1
2023-03-20T11:36:56.527Z,1
2023-03-20T11:38:02.808Z,1
2023-03-20T11:39:09.065Z,1
2023-03-20T11:40:15.336Z,4
2023-03-20T11:41:21.642Z,2
2023-03-20T11:42:27.958Z,0
2023-03-20T11:43:34.258Z,2
2023-03-20T11:44:40.448Z,3
2023-03-20T11:45:46.857Z,1
2023-03-20T11:46:52.965Z,3
2023-03-20T11:47:58.349Z,2
2023-03-20T11:49:04.531Z,3
2023-03-20T11:50:10.865Z,3
2023-03-20T11:51:17.102Z,3
2023-03-20T11:52:23.337Z,2
2023-03-20T11:53:29.607Z,3
2023-03-20T11:54:35.906Z,3
2023-03-20T11:55:42.166Z,3
2023-03-20T11:56:48.450Z,3
2023-03-20T11:57:54.696Z,3
2023-03-20T11:59:00.976Z,4
2023-03-20T12:00:07.248Z,3
2023-03-20T12:01:13.513Z,3
2023-03-20T12:02:19.783Z,3
2023-03-20T12:03:25.089Z,5
2023-03-20T12:04:31.339Z,4
2023-03-20T12:05:37.626Z,6
2023-03-20T12:06:43.881Z,4
2023-03-20T12:07:49.189Z,3
2023-03-20T12:08:55.524Z,4
2023-03-20T12:10:00.751Z,5
2023-03-20T12:11:07.123Z,5
2023-03-20T12:12:12.358Z,4
2023-03-20T12:13:17.603Z,6
2023-03-20T12:14:23.893Z,4
2023-03-20T12:15:30.148Z,3
2023-03-20T12:16:36.408Z,3
2023-03-20T12:17:42.693Z,3
2023-03-20T12:18:48.961Z,4
2023-03-20T12:19:55.237Z,4
2023-03-20T12:21:01.498Z,4
2023-03-20T12:22:07.778Z,4
2023-03-20T12:23:14.042Z,5
2023-03-20T12:24:20.313Z,4
2023-03-20T12:25:26.593Z,3
2023-03-20T12:26:32.857Z,6
2023-03-20T12:27:38.163Z,5
2023-03-20T12:28:44.425Z,3
2023-03-20T12:29:50.694Z,3
2023-03-20T12:30:56.966Z,3
2023-03-20T12:32:03.229Z,4
2023-03-20T12:33:09.509Z,5
2023-03-20T12:34:15.778Z,5
2023-03-20T12:35:22.053Z,5
2023-03-20T12:36:28.324Z,5
2023-03-20T12:37:34.604Z,6
2023-03-20T12:38:40.870Z,6
2023-03-20T12:39:47.133Z,5
2023-03-20T12:40:53.412Z,3
2023-03-20T12:41:58.698Z,5
2023-03-20T12:43:04.975Z,6
2023-03-20T12:44:10.267Z,6
2023-03-20T12:45:16.545Z,5
2023-03-20T12:46:22.809Z,5
2023-03-20T12:47:29.075Z,6
2023-03-20T12:48:35.355Z,6
2023-03-20T12:49:41.621Z,6
2023-03-20T12:50:47.896Z,3
2023-03-20T12:51:53.192Z,6
2023-03-20T12:52:58.478Z,4
2023-03-20T12:54:04.778Z,5
2023-03-20T12:55:11.019Z,4
2023-03-20T12:56:16.321Z,9
2023-03-20T12:57:21.607Z,5
2023-03-20T12:58:27.921Z,6
2023-03-20T12:59:34.149Z,5
2023-03-20T13:00:40.436Z,6
2023-03-20T13:01:46.721Z,6
2023-03-20T13:02:53.021Z,6
2023-03-20T13:03:59.252Z,5
2023-03-20T13:06:11.781Z,6
2023-03-20T13:07:18.050Z,6
2023-03-20T13:08:24.358Z,6
2023-03-20T13:09:30.596Z,6
2023-03-20T13:10:36.869Z,6
2023-03-20T13:11:42.147Z,5
2023-03-20T13:12:48.424Z,6
2023-03-20T13:13:54.702Z,7
2023-03-20T13:15:00.977Z,8
2023-03-20T13:16:07.243Z,7
2023-03-20T13:17:13.512Z,8
2023-03-20T13:18:19.775Z,8
2023-03-20T13:19:26.100Z,8
2023-03-20T13:20:31.346Z,8
2023-03-20T13:21:36.771Z,8
2023-03-20T13:22:42.912Z,9
2023-03-20T13:23:49.193Z,8
2023-03-20T13:24:54.483Z,8
2023-03-20T13:25:59.775Z,8
2023-03-20T13:27:06.052Z,8
2023-03-20T13:28:12.327Z,6
2023-03-20T13:29:18.584Z,7
2023-03-20T13:30:24.904Z,6
2023-03-20T13:31:31.128Z,6
2023-03-20T13:32:37.501Z,7
2023-03-20T13:33:43.670Z,6
2023-03-20T13:34:49.993Z,6
2023-03-20T13:35:56.241Z,8
2023-03-20T13:37:02.486Z,6
2023-03-20T13:38:08.823Z,6
2023-03-20T13:39:15.103Z,6
2023-03-20T13:40:20.302Z,6
2023-03-20T13:41:26.605Z,6
2023-03-20T13:42:32.863Z,7
2023-03-20T13:43:39.125Z,6
2023-03-20T13:44:45.400Z,7
2023-03-20T13:45:51.687Z,7
2023-03-20T13:46:57.998Z,8
2023-03-20T13:48:03.265Z,8
2023-03-20T13:49:08.533Z,7
2023-03-20T13:50:14.803Z,8
2023-03-20T13:51:20.099Z,7
2023-03-20T13:52:26.374Z,8
2023-03-20T13:53:31.674Z,8
2023-03-20T13:54:37.932Z,7
2023-03-20T13:55:44.203Z,7
2023-03-20T13:56:50.472Z,7
2023-03-20T13:57:56.748Z,7
2023-03-20T13:59:03.044Z,7
2023-03-20T14:00:09.353Z,7
2023-03-20T14:01:15.605Z,6
2023-03-20T14:02:21.956Z,8
2023-03-20T14:03:28.105Z,7
2023-03-20T14:04:34.493Z,8
2023-03-20T14:05:40.756Z,7
2023-03-20T14:06:46.918Z,7
2023-03-20T14:07:52.211Z,8
2023-03-20T14:08:58.532Z,8
2023-03-20T14:10:04.769Z,8
2023-03-20T14:11:11.015Z,9
2023-03-20T14:12:17.293Z,9
2023-03-20T14:13:23.636Z,8
2023-03-20T14:14:28.864Z,11
2023-03-20T14:15:35.136Z,9
2023-03-20T14:16:40.441Z,9
2023-03-20T14:17:45.850Z,9
2023-03-20T14:18:51.991Z,9
2023-03-20T14:19:58.296Z,10
2023-03-20T14:21:04.576Z,9
2023-03-20T14:22:10.802Z,9
2023-03-20T14:23:17.078Z,9
2023-03-20T14:24:23.419Z,9
2023-03-20T14:25:29.646Z,8
2023-03-20T14:26:35.895Z,9
2023-03-20T14:27:42.181Z,9
2023-03-20T14:28:48.439Z,9
2023-03-20T14:29:54.711Z,9
2023-03-20T14:31:00.975Z,9
2023-03-20T14:32:06.269Z,9
2023-03-20T14:33:12.536Z,7
2023-03-20T14:34:18.807Z,7
2023-03-20T14:35:25.114Z,9
2023-03-20T14:36:31.405Z,9
2023-03-20T14:37:37.626Z,9
2023-03-20T14:38:43.899Z,9
2023-03-20T14:39:50.171Z,8
2023-03-20T14:40:56.431Z,8
2023-03-20T14:42:02.711Z,9
2023-03-20T14:43:09.018Z,9
2023-03-20T14:44:15.340Z,9
2023-03-20T14:45:21.515Z,8
2023-03-20T14:46:27.919Z,9
2023-03-20T14:47:34.223Z,8
2023-03-20T14:48:40.461Z,7
2023-03-20T14:49:46.740Z,6
2023-03-20T14:50:52.989Z,9
2023-03-20T14:51:59.272Z,8
2023-03-20T14:53:05.591Z,8
2023-03-20T14:54:11.813Z,8
2023-03-20T14:55:18.138Z,8
2023-03-20T14:56:24.389Z,9
2023-03-20T14:57:30.624Z,9
2023-03-20T14:58:36.902Z,9
2023-03-20T14:59:43.175Z,7
2023-03-20T15:00:48.514Z,7
2023-03-20T15:01:54.731Z,8
2023-03-20T15:03:01.004Z,8
2023-03-20T15:04:07.267Z,7
2023-03-20T15:05:13.565Z,8
2023-03-20T15:06:19.837Z,8
2023-03-20T15:07:26.101Z,9
2023-03-20T15:08:32.372Z,7
2023-03-20T15:09:38.632Z,8
2023-03-20T15:10:44.969Z,6
2023-03-20T15:11:51.278Z,8
2023-03-20T15:12:57.522Z,6
2023-03-20T15:14:03.748Z,7
2023-03-20T15:15:09.027Z,8
2023-03-20T15:16:15.275Z,7
2023-03-20T15:17:20.576Z,7
2023-03-20T15:18:26.862Z,7
2023-03-20T15:19:32.196Z,7
2023-03-20T15:20:37.427Z,7
2023-03-20T15:21:42.901Z,6
2023-03-20T15:22:49.037Z,7
2023-03-20T15:23:55.264Z,6
2023-03-20T15:25:01.718Z,6
2023-03-20T15:26:07.807Z,7
2023-03-20T15:27:14.107Z,5
2023-03-20T15:28:20.355Z,7
2023-03-20T15:29:26.634Z,7
2023-03-20T15:30:32.897Z,7
2023-03-20T15:31:39.179Z,7
2023-03-20T15:32:45.440Z,6
2023-03-20T15:33:51.756Z,6
2023-03-20T15:34:57.983Z,6
2023-03-20T15:36:03.282Z,6
2023-03-20T15:37:09.563Z,7
2023-03-20T15:38:15.824Z,6
2023-03-20T15:39:22.092Z,6
2023-03-20T15:40:28.457Z,6
2023-03-20T15:41:34.822Z,6
2023-03-20T15:42:41.063Z,7
2023-03-20T15:43:46.643Z,6
2023-03-20T15:44:51.477Z,6
2023-03-20T15:45:56.854Z,7
2023-03-20T15:47:02.125Z,7
2023-03-20T15:48:08.333Z,6
2023-03-20T15:49:14.616Z,6
2023-03-20T15:50:20.886Z,6
2023-03-20T15:51:27.178Z,6
2023-03-20T15:52:33.423Z,6
2023-03-20T15:53:39.697Z,6
2023-03-20T15:54:45.967Z,6
2023-03-20T15:55:52.246Z,6
2023-03-20T15:56:58.522Z,6
2023-03-20T15:58:04.789Z,6
2023-03-20T15:59:11.115Z,6
2023-03-20T16:00:17.325Z,6